Time;durP1;ratioP1;P1;durP2;ratioP2;P2;SDS_P1;SDS_P2;PMS_P1;PMS_P2;Temp;Humidity;BMP_temperature;BMP_pressure;BME280_temperature;BME280_humidity;BME280_pressure;Samples;Min_cycle;Max_cycle;Signal;HPM_P1;HPM_P2
2022/09/09 00:00:48;;;;;;;3.83;1.00;;;16.90;99.90;;;;;;5078996;28;20024;-58
2022/09/09 00:03:19;;;;;;;3.22;0.85;;;16.80;99.90;;;;;;5078239;28;20107;-55
2022/09/09 00:06:01;;;;;;;3.25;0.77;;;16.70;99.90;;;;;;5080475;28;20035;-57
2022/09/09 00:08:57;;;;;;;3.33;0.60;;;16.60;99.90;;;;;;5080566;28;20363;-58
2022/09/09 00:11:40;;;;;;;5.57;1.88;;;16.50;99.90;;;;;;5074129;28;20043;-57
2022/09/09 00:14:14;;;;;;;1.20;0.90;;;16.50;99.90;;;;;;5083351;28;20027;-58
2022/09/09 00:16:44;;;;;;;3.80;0.73;;;16.50;99.90;;;;;;5080232;28;20107;-58
2022/09/09 00:19:26;;;;;;;3.45;0.70;;;16.40;99.90;;;;;;5073917;28;20045;-58
2022/09/09 00:22:13;;;;;;;3.22;0.70;;;16.40;99.90;;;;;;5077733;28;20078;-58
2022/09/09 00:24:44;;;;;;;1.95;0.60;;;16.30;99.90;;;;;;5078499;28;20436;-58
2022/09/09 00:27:37;;;;;;;4.00;1.02;;;16.30;99.90;;;;;;5084432;28;20101;-58
2022/09/09 00:30:22;;;;;;;7.82;1.08;;;16.20;99.90;;;;;;5065975;28;20520;-57
2022/09/09 00:33:14;;;;;;;12.48;0.88;;;16.20;99.90;;;;;;5082850;28;20063;-57
2022/09/09 00:35:47;;;;;;;1.55;0.88;;;16.20;99.90;;;;;;5075368;28;20062;-58
2022/09/09 00:38:26;;;;;;;3.67;0.90;;;16.20;99.90;;;;;;5074302;28;20482;-58
2022/09/09 00:40:59;;;;;;;1.80;0.60;;;16.20;99.90;;;;;;5075593;28;20127;-58
2022/09/09 00:43:27;;;;;;;3.28;0.80;;;16.40;99.90;;;;;;5076166;28;20032;-58
2022/09/09 00:46:16;;;;;;;6.63;1.08;;;16.50;99.90;;;;;;5079404;28;20056;-58
2022/09/09 00:48:47;;;;;;;5.35;0.82;;;16.60;99.90;;;;;;5076257;28;20032;-56
2022/09/09 00:51:30;;;;;;;4.03;0.70;;;16.70;99.90;;;;;;5082726;28;20040;-58
2022/09/09 00:54:24;;;;;;;1.77;0.75;;;16.70;99.90;;;;;;5078980;28;20311;-58
2022/09/09 00:57:14;;;;;;;3.77;0.70;;;16.80;99.90;;;;;;5073765;28;20056;-58
2022/09/09 00:59:57;;;;;;;4.57;0.85;;;16.70;99.90;;;;;;5078029;28;20124;-58
2022/09/09 01:02:34;;;;;;;2.03;0.50;;;16.70;99.90;;;;;;5084043;28;21811;-59
2022/09/09 01:05:13;;;;;;;0.88;0.43;;;16.70;99.90;;;;;;5075237;28;20039;-57
2022/09/09 01:07:44;;;;;;;2.78;0.60;;;16.80;99.90;;;;;;5080367;28;20024;-58
2022/09/09 01:10:26;;;;;;;3.78;0.80;;;16.90;99.90;;;;;;5077717;28;20036;-58
2022/09/09 01:12:53;;;;;;;0.98;0.57;;;16.90;99.90;;;;;;5082647;28;20028;-57
2022/09/09 01:15:25;;;;;;;7.85;0.73;;;16.90;99.90;;;;;;5074680;28;20106;-57
2022/09/09 01:18:09;;;;;;;1.35;0.60;;;16.80;99.90;;;;;;5083968;28;20036;-58
2022/09/09 01:20:52;;;;;;;4.32;0.82;;;16.80;99.90;;;;;;5078545;28;20051;-59
2022/09/09 01:23:34;;;;;;;3.38;0.50;;;16.80;99.90;;;;;;5080746;28;20024;-58
2022/09/09 01:26:11;;;;;;;1.35;0.60;;;16.70;99.90;;;;;;5076762;28;20382;-57
2022/09/09 01:28:38;;;;;;;4.22;0.52;;;16.70;99.90;;;;;;5081250;28;20050;-59
2022/09/09 01:31:06;;;;;;;0.90;0.65;;;16.60;99.90;;;;;;5087630;28;20060;-57
2022/09/09 01:33:32;;;;;;;3.47;1.02;;;16.40;99.90;;;;;;5083598;28;20025;-58
2022/09/09 01:36:07;;;;;;;6.15;1.00;;;16.40;99.90;;;;;;5084051;28;20039;-58
2022/09/09 01:38:34;;;;;;;2.30;1.05;;;16.30;99.90;;;;;;5083021;28;20050;-58
2022/09/09 01:41:00;;;;;;;4.30;0.93;;;16.20;99.90;;;;;;5079838;28;20042;-55
2022/09/09 01:43:27;;;;;;;5.05;0.73;;;16.20;99.90;;;;;;5080312;28;20024;-58
2022/09/09 01:45:55;;;;;;;2.25;0.85;;;16.10;99.90;;;;;;5083224;28;20081;-58
2022/09/09 01:48:23;;;;;;;10.32;0.90;;;16.00;99.90;;;;;;5083176;28;20506;-59
2022/09/09 01:50:49;;;;;;;3.20;0.70;;;16.00;99.90;;;;;;5084295;28;20497;-57
2022/09/09 01:53:16;;;;;;;4.75;0.77;;;16.00;99.90;;;;;;5082916;28;20042;-57
2022/09/09 01:55:48;;;;;;;6.00;0.77;;;16.00;99.90;;;;;;5079216;28;20036;-58
2022/09/09 01:58:29;;;;;;;3.80;0.90;;;16.00;99.90;;;;;;5085798;28;20029;-58
2022/09/09 02:01:05;;;;;;;1.88;1.02;;;16.10;99.90;;;;;;5087884;28;20440;-57
2022/09/09 02:03:33;;;;;;;3.90;0.80;;;16.10;99.90;;;;;;5075360;28;20032;-57
2022/09/09 02:06:20;;;;;;;5.80;0.85;;;16.10;99.90;;;;;;5079778;28;20070;-58
2022/09/09 02:08:49;;;;;;;1.23;0.65;;;16.10;99.90;;;;;;5083620;28;20032;-58
2022/09/09 02:11:26;;;;;;;2.55;0.70;;;16.20;99.90;;;;;;5084358;28;20046;-58
2022/09/09 02:13:57;;;;;;;4.55;1.08;;;16.20;99.90;;;;;;5083122;28;20020;-58
2022/09/09 02:16:32;;;;;;;7.43;0.90;;;16.10;99.90;;;;;;5084191;28;20043;-57
2022/09/09 02:19:01;;;;;;;6.57;1.00;;;16.10;99.90;;;;;;5085250;28;20042;-57
2022/09/09 02:21:28;;;;;;;3.17;0.90;;;16.10;99.90;;;;;;5082044;28;20032;-58
2022/09/09 02:23:58;;;;;;;7.15;1.05;;;16.20;99.90;;;;;;5087119;28;20020;-55
2022/09/09 02:26:25;;;;;;;3.55;0.80;;;16.20;99.90;;;;;;5088742;28;20020;-57
2022/09/09 02:28:54;;;;;;;3.17;0.80;;;16.20;99.90;;;;;;5086118;28;20036;-58
2022/09/09 02:31:24;;;;;;;1.42;0.70;;;16.20;99.90;;;;;;5086290;28;20025;-58
2022/09/09 02:33:58;;;;;;;3.65;0.90;;;16.20;99.90;;;;;;5081369;28;20513;-58
2022/09/09 02:36:28;;;;;;;6.78;0.90;;;16.20;99.90;;;;;;5087140;28;20055;-57
2022/09/09 02:38:55;;;;;;;2.00;0.68;;;16.20;99.90;;;;;;5086681;28;20028;-56
2022/09/09 02:41:27;;;;;;;10.57;1.23;;;16.20;99.90;;;;;;5080294;28;20518;-55
2022/09/09 02:43:53;;;;;;;7.88;1.05;;;16.20;99.90;;;;;;5081760;28;20478;-57
2022/09/09 02:46:44;;;;;;;2.78;0.70;;;16.20;99.90;;;;;;5078816;28;20035;-55
2022/09/09 02:49:18;;;;;;;7.97;1.20;;;16.20;99.90;;;;;;5086739;28;20031;-58
2022/09/09 02:52:05;;;;;;;1.85;0.77;;;16.20;99.90;;;;;;5086502;28;20078;-56
2022/09/09 02:54:37;;;;;;;2.10;0.63;;;16.30;99.90;;;;;;5087581;28;20021;-57
2022/09/09 02:57:20;;;;;;;4.30;0.93;;;16.30;99.90;;;;;;5081919;28;20056;-58
2022/09/09 02:59:47;;;;;;;2.80;1.08;;;16.30;99.90;;;;;;5080591;28;20028;-58
2022/09/09 03:02:12;;;;;;;5.32;0.85;;;16.20;99.90;;;;;;5084026;28;20051;-56
2022/09/09 03:04:39;;;;;;;2.50;1.00;;;16.20;99.90;;;;;;5078034;28;20494;-58
2022/09/09 03:07:05;;;;;;;1.90;0.80;;;16.30;99.90;;;;;;5084992;28;20116;-58
2022/09/09 03:09:32;;;;;;;9.80;1.10;;;16.30;99.90;;;;;;5080739;28;20071;-55
2022/09/09 03:11:58;;;;;;;2.30;0.90;;;16.30;99.90;;;;;;5086640;28;20602;-59
2022/09/09 03:14:26;;;;;;;5.88;1.20;;;16.30;99.90;;;;;;5085523;28;20039;-58
2022/09/09 03:16:53;;;;;;;6.68;1.15;;;16.30;99.90;;;;;;5082100;28;20161;-58
2022/09/09 03:19:18;;;;;;;7.57;0.98;;;16.30;99.90;;;;;;5111605;22;20048;-64
2022/09/09 03:21:45;;;;;;;6.88;0.93;;;16.30;99.90;;;;;;5099300;28;20122;-64
2022/09/09 03:24:11;;;;;;;6.10;0.90;;;16.30;99.90;;;;;;5101628;28;20016;-64
2022/09/09 03:26:37;;;;;;;9.45;1.58;;;16.30;99.90;;;;;;5098128;28;20043;-63
2022/09/09 03:29:05;;;;;;;11.40;1.20;;;16.30;99.90;;;;;;5101925;28;20494;-63
2022/09/09 03:31:30;;;;;;;6.53;2.10;;;16.20;99.90;;;;;;5103806;28;20032;-63
2022/09/09 03:33:59;;;;;;;9.55;1.42;;;16.20;99.90;;;;;;5105604;28;20485;-63
2022/09/09 03:36:26;;;;;;;3.50;0.85;;;16.20;99.90;;;;;;5102320;28;20128;-63
2022/09/09 03:38:54;;;;;;;5.10;1.02;;;16.20;99.90;;;;;;5097279;28;20016;-62
2022/09/09 03:41:23;;;;;;;10.32;1.00;;;16.30;99.90;;;;;;5101061;28;20509;-63
2022/09/09 03:43:52;;;;;;;8.32;1.23;;;16.30;99.90;;;;;;5101770;28;20110;-62
2022/09/09 03:46:18;;;;;;;6.10;0.80;;;16.30;99.90;;;;;;5101788;28;20090;-62
2022/09/09 03:48:44;;;;;;;5.28;0.70;;;16.30;99.90;;;;;;5105140;28;20020;-63
2022/09/09 03:51:10;;;;;;;4.70;1.20;;;16.30;99.90;;;;;;5101116;28;20031;-63
2022/09/09 03:53:37;;;;;;;3.65;1.05;;;16.30;99.90;;;;;;5103975;28;20028;-63
2022/09/09 03:56:06;;;;;;;6.40;1.48;;;16.40;99.90;;;;;;5104594;28;20078;-63
2022/09/09 03:58:33;;;;;;;9.32;1.20;;;16.30;99.90;;;;;;5105526;28;20031;-63
2022/09/09 04:01:02;;;;;;;5.20;1.08;;;16.30;99.90;;;;;;5100750;28;20629;-63
2022/09/09 04:03:28;;;;;;;6.10;0.93;;;16.40;99.90;;;;;;5099279;28;20030;-63
2022/09/09 04:05:55;;;;;;;4.28;1.33;;;16.40;99.90;;;;;;5103554;28;20019;-63
2022/09/09 04:08:22;;;;;;;4.20;1.10;;;16.40;99.90;;;;;;5103917;28;20019;-63
2022/09/09 04:10:51;;;;;;;4.93;1.08;;;16.40;99.90;;;;;;5100037;28;20035;-64
2022/09/09 04:13:19;;;;;;;8.07;1.00;;;16.40;99.90;;;;;;5105347;28;20027;-64
2022/09/09 04:15:51;;;;;;;1.65;0.63;;;16.40;99.90;;;;;;5102745;28;20027;-64
2022/09/09 04:18:16;;;;;;;9.18;1.20;;;16.40;99.90;;;;;;5101012;28;20031;-63
2022/09/09 04:20:43;;;;;;;8.18;2.55;;;16.40;99.90;;;;;;5100829;28;20404;-64
2022/09/09 04:23:09;;;;;;;3.50;0.80;;;16.40;99.90;;;;;;5103547;27;20111;-64
2022/09/09 04:25:34;;;;;;;15.55;1.23;;;16.40;99.90;;;;;;5104127;28;20106;-63
2022/09/09 04:28:00;;;;;;;5.88;1.25;;;16.30;99.90;;;;;;5101876;28;20489;-63
2022/09/09 04:30:27;;;;;;;4.30;1.10;;;16.40;99.90;;;;;;5099737;28;20031;-63
2022/09/09 04:32:52;;;;;;;11.88;1.13;;;16.30;99.90;;;;;;5102845;28;20031;-63
2022/09/09 04:35:19;;;;;;;7.50;0.95;;;16.30;99.90;;;;;;5101983;28;20072;-63
2022/09/09 04:37:45;;;;;;;5.80;1.15;;;16.30;99.90;;;;;;5100021;27;20020;-65
2022/09/09 04:40:11;;;;;;;10.45;1.40;;;16.30;99.90;;;;;;5099104;28;20043;-63
2022/09/09 04:42:37;;;;;;;11.45;1.35;;;16.40;99.90;;;;;;5101285;28;20035;-63
2022/09/09 04:45:03;;;;;;;8.73;1.35;;;16.40;99.90;;;;;;5097953;28;20031;-64
2022/09/09 04:47:28;;;;;;;6.53;1.15;;;16.40;99.90;;;;;;5101934;28;20028;-63
2022/09/09 04:49:54;;;;;;;7.97;1.50;;;16.50;99.90;;;;;;5098169;28;20027;-64
2022/09/09 04:52:20;;;;;;;8.25;1.48;;;16.50;99.90;;;;;;5099148;28;20028;-63
2022/09/09 04:54:46;;;;;;;8.60;1.55;;;16.50;99.90;;;;;;5104241;28;20439;-63
2022/09/09 04:57:12;;;;;;;7.45;1.30;;;16.50;99.90;;;;;;5096760;28;20028;-63
2022/09/09 04:59:39;;;;;;;9.43;1.20;;;16.60;99.90;;;;;;5096803;28;20035;-64
2022/09/09 05:02:05;;;;;;;5.20;0.98;;;16.60;99.90;;;;;;5097477;28;20024;-64
2022/09/09 05:04:30;;;;;;;8.50;1.20;;;16.60;99.90;;;;;;5101175;28;20019;-63
2022/09/09 05:06:56;;;;;;;7.82;1.13;;;16.70;99.90;;;;;;5097735;28;20020;-61
2022/09/09 05:09:21;;;;;;;7.28;0.95;;;16.70;99.90;;;;;;5101253;28;20386;-63
2022/09/09 05:11:47;;;;;;;5.80;1.23;;;16.60;99.90;;;;;;5094678;28;20532;-64
2022/09/09 05:14:14;;;;;;;9.25;1.20;;;16.70;99.90;;;;;;5103853;28;20583;-63
2022/09/09 05:16:40;;;;;;;3.55;0.98;;;16.70;99.90;;;;;;5100197;28;20115;-63
2022/09/09 05:19:07;;;;;;;6.25;1.00;;;16.70;99.90;;;;;;5098158;28;20165;-63
2022/09/09 05:21:33;;;;;;;6.53;1.38;;;16.70;99.90;;;;;;5097954;28;20035;-63
2022/09/09 05:24:00;;;;;;;7.05;1.42;;;16.60;99.90;;;;;;5104334;28;20020;-63
2022/09/09 05:26:26;;;;;;;9.88;0.98;;;16.70;99.90;;;;;;5098755;28;20031;-63
2022/09/09 05:28:52;;;;;;;14.57;1.05;;;16.60;99.90;;;;;;5102491;28;20042;-63
2022/09/09 05:31:18;;;;;;;8.02;1.40;;;16.60;99.90;;;;;;5102113;28;20031;-63
2022/09/09 05:33:46;;;;;;;9.88;1.10;;;16.60;99.90;;;;;;5101583;28;20478;-62
2022/09/09 05:36:16;;;;;;;4.00;0.98;;;16.60;99.90;;;;;;5097517;28;20031;-64
2022/09/09 05:38:43;;;;;;;9.77;1.13;;;16.60;99.90;;;;;;5107430;28;20035;-63
2022/09/09 05:41:10;;;;;;;7.35;1.48;;;16.60;99.90;;;;;;5101322;28;20027;-63
2022/09/09 05:43:37;;;;;;;5.57;1.45;;;16.60;99.90;;;;;;5098393;28;20371;-63
2022/09/09 05:46:13;;;;;;;7.53;1.20;;;16.60;99.90;;;;;;5095827;28;20048;-63
2022/09/09 05:48:42;;;;;;;4.05;0.80;;;16.70;99.90;;;;;;5105677;28;20016;-62
2022/09/09 05:51:15;;;;;;;2.58;0.95;;;16.70;99.90;;;;;;5102365;28;20028;-63
2022/09/09 05:53:41;;;;;;;2.55;1.00;;;16.80;99.90;;;;;;5097316;28;20028;-63
2022/09/09 05:56:15;;;;;;;10.15;2.58;;;16.80;99.90;;;;;;5098252;28;20034;-63
2022/09/09 05:58:44;;;;;;;10.68;1.38;;;16.80;99.90;;;;;;5110022;28;20036;-63
2022/09/09 06:01:22;;;;;;;8.73;1.42;;;16.90;99.90;;;;;;5107483;28;20042;-63
2022/09/09 06:03:49;;;;;;;4.85;1.23;;;16.90;99.90;;;;;;5094964;28;20039;-63
2022/09/09 06:06:21;;;;;;;5.20;0.98;;;17.00;99.90;;;;;;5096509;28;20588;-63
2022/09/09 06:08:47;;;;;;;3.92;0.98;;;17.00;99.90;;;;;;5098779;28;20043;-63
2022/09/09 06:11:18;;;;;;;9.00;1.95;;;17.10;99.90;;;;;;5101785;28;20445;-63
2022/09/09 06:13:44;;;;;;;10.68;1.10;;;17.10;99.90;;;;;;5094718;28;20024;-63
2022/09/09 06:16:16;;;;;;;7.38;1.00;;;17.10;99.90;;;;;;5094793;28;20545;-62
2022/09/09 06:18:43;;;;;;;4.78;1.00;;;17.10;99.90;;;;;;5106079;28;20035;-63
2022/09/09 06:21:15;;;;;;;4.10;1.02;;;17.20;99.90;;;;;;5103831;28;20491;-63
2022/09/09 06:23:41;;;;;;;2.92;0.82;;;17.10;99.90;;;;;;5103731;28;20054;-63
2022/09/09 06:26:17;;;;;;;4.72;0.90;;;17.10;99.90;;;;;;5093566;28;20070;-63
2022/09/09 06:28:47;;;;;;;5.57;0.82;;;17.20;99.90;;;;;;5103404;28;20020;-61
2022/09/09 06:31:17;;;;;;;6.82;0.95;;;17.10;99.90;;;;;;5106827;28;20770;-63
2022/09/09 06:33:44;;;;;;;11.95;2.85;;;17.20;99.90;;;;;;5097598;27;20032;-62
2022/09/09 06:36:16;;;;;;;13.88;3.15;;;17.10;99.90;;;;;;5103451;28;20345;-63
2022/09/09 06:38:42;;;;;;;3.08;0.90;;;17.10;99.90;;;;;;5098743;28;20024;-64
2022/09/09 06:41:09;;;;;;;9.52;1.48;;;17.20;99.90;;;;;;5106218;28;20024;-63
2022/09/09 06:43:35;;;;;;;7.38;1.20;;;17.20;99.90;;;;;;5093605;28;20031;-62
2022/09/09 06:46:05;;;;;;;6.15;0.80;;;17.20;99.90;;;;;;5098843;28;20023;-63
2022/09/09 06:48:31;;;;;;;8.25;0.90;;;17.20;99.90;;;;;;5099686;28;20024;-63
2022/09/09 06:51:11;;;;;;;6.30;0.95;;;17.20;99.90;;;;;;5100392;28;20055;-63
2022/09/09 06:53:37;;;;;;;6.82;0.98;;;17.30;99.90;;;;;;5092489;27;20756;-63
2022/09/09 06:56:21;;;;;;;10.27;1.10;;;17.30;99.90;;;;;;5092421;28;20085;-62
2022/09/09 06:58:48;;;;;;;4.47;0.77;;;17.30;99.90;;;;;;5099239;28;20043;-63
2022/09/09 07:01:16;;;;;;;5.57;0.90;;;17.30;99.90;;;;;;5106084;28;20031;-64
2022/09/09 07:03:45;;;;;;;3.28;0.60;;;17.40;99.90;;;;;;5093102;28;20028;-64
2022/09/09 07:06:19;;;;;;;9.15;1.20;;;17.50;99.90;;;;;;5093614;28;20035;-64
2022/09/09 07:08:52;;;;;;;3.78;0.65;;;17.50;99.90;;;;;;5106226;28;20521;-63
2022/09/09 07:11:22;;;;;;;5.90;1.20;;;17.60;99.90;;;;;;5100546;28;20042;-64
2022/09/09 07:13:48;;;;;;;11.98;1.52;;;17.70;99.90;;;;;;5101456;28;20036;-62
2022/09/09 07:16:17;;;;;;;8.13;1.30;;;17.70;99.90;;;;;;5090116;28;20042;-61
2022/09/09 07:18:42;;;;;;;5.10;0.77;;;17.80;99.90;;;;;;5107997;28;20024;-63
2022/09/09 07:21:12;;;;;;;12.43;2.15;;;17.80;99.90;;;;;;5099825;28;20035;-63
2022/09/09 07:23:40;;;;;;;4.75;1.00;;;17.90;99.90;;;;;;5092146;28;20826;-64
2022/09/09 07:26:15;;;;;;;4.05;0.88;;;18.00;99.90;;;;;;5094348;28;20037;-63
2022/09/09 07:28:41;;;;;;;5.28;2.35;;;18.00;99.90;;;;;;5104651;28;20550;-64
2022/09/09 07:31:13;;;;;;;6.80;1.08;;;18.10;99.90;;;;;;5104913;28;20050;-64
2022/09/09 07:33:40;;;;;;;8.40;1.20;;;18.20;99.90;;;;;;5091983;28;20024;-63
2022/09/09 07:36:12;;;;;;;4.32;1.23;;;18.30;99.90;;;;;;5091923;28;20115;-63
2022/09/09 07:38:45;;;;;;;4.15;1.58;;;18.40;99.90;;;;;;5108338;28;20434;-62
2022/09/09 07:41:13;;;;;;;9.15;1.17;;;18.70;99.90;;;;;;5102081;28;20032;-63
2022/09/09 07:43:44;;;;;;;2.28;0.82;;;18.80;99.90;;;;;;5093466;28;20023;-59
2022/09/09 07:46:11;;;;;;;6.38;1.00;;;18.90;99.90;;;;;;5101349;28;20024;-63
2022/09/09 07:48:37;;;;;;;6.80;0.80;;;18.90;99.90;;;;;;5100899;28;20020;-64
2022/09/09 07:51:19;;;;;;;9.15;1.23;;;18.90;99.90;;;;;;5098232;28;20050;-64
2022/09/09 07:53:46;;;;;;;5.43;1.17;;;18.90;99.90;;;;;;5092945;28;20077;-63
2022/09/09 07:56:16;;;;;;;8.95;1.60;;;18.90;99.90;;;;;;5094646;28;20085;-62
2022/09/09 07:58:45;;;;;;;2.83;0.80;;;18.90;99.90;;;;;;5103665;28;20423;-62
2022/09/09 08:01:17;;;;;;;5.85;1.10;;;19.00;99.90;;;;;;5102520;28;20093;-62
2022/09/09 08:03:47;;;;;;;5.20;0.90;;;19.00;99.90;;;;;;5096073;28;20077;-64
2022/09/09 08:06:13;;;;;;;4.03;1.00;;;19.10;99.90;;;;;;5093646;28;20024;-63
2022/09/09 08:08:41;;;;;;;13.10;1.05;;;19.10;99.90;;;;;;5097220;28;20026;-64
2022/09/09 08:11:16;;;;;;;9.48;1.02;;;19.00;99.90;;;;;;5099264;28;20064;-61
2022/09/09 08:13:43;;;;;;;4.38;1.00;;;19.00;99.90;;;;;;5095889;28;20747;-64
2022/09/09 08:16:15;;;;;;;15.45;1.75;;;19.00;99.90;;;;;;5095473;28;20025;-64
2022/09/09 08:18:41;;;;;;;7.20;0.98;;;19.00;99.90;;;;;;5104775;28;20050;-63
2022/09/09 08:21:12;;;;;;;9.88;3.38;;;19.10;99.90;;;;;;5105698;28;20103;-65
2022/09/09 08:23:42;;;;;;;12.73;1.77;;;19.10;99.90;;;;;;5094307;28;20084;-65
2022/09/09 08:26:15;;;;;;;8.88;1.73;;;19.10;99.90;;;;;;5092799;28;20493;-64
2022/09/09 08:28:42;;;;;;;7.22;1.38;;;19.20;99.90;;;;;;5100338;28;21168;-64
2022/09/09 08:31:14;;;;;;;4.55;1.20;;;19.30;99.90;;;;;;5102958;28;20555;-63
2022/09/09 08:33:41;;;;;;;2.90;0.65;;;19.30;99.90;;;;;;5102228;28;20028;-64
2022/09/09 08:36:09;;;;;;;6.78;0.82;;;19.40;99.90;;;;;;5093055;28;20035;-64
2022/09/09 08:38:35;;;;;;;9.18;1.02;;;19.50;99.90;;;;;;5096774;28;20039;-64
2022/09/09 08:41:39;;;;;;;8.15;0.93;;;19.40;99.90;;;;;;5100384;28;20031;-64
2022/09/09 08:44:31;;;;;;;4.47;0.80;;;19.40;99.90;;;;;;5087311;28;20032;-62
2022/09/09 08:47:02;;;;;;;10.70;1.33;;;19.50;99.90;;;;;;5099013;28;20035;-64
2022/09/09 08:49:47;;;;;;;6.43;0.75;;;19.40;99.90;;;;;;5104583;28;20096;-63
2022/09/09 08:52:19;;;;;;;4.63;0.93;;;19.40;99.90;;;;;;5095415;28;20016;-60
2022/09/09 08:54:46;;;;;;;3.20;1.00;;;19.40;99.90;;;;;;5095863;28;20477;-65
2022/09/09 08:57:19;;;;;;;6.07;1.20;;;19.60;99.90;;;;;;5096090;28;20111;-65
2022/09/09 08:59:45;;;;;;;6.43;0.70;;;19.60;99.90;;;;;;5100748;28;20447;-63
2022/09/09 09:02:16;;;;;;;3.58;0.70;;;19.70;99.90;;;;;;5099368;28;20062;-64
2022/09/09 09:05:13;;;;;;;5.53;0.93;;;19.80;99.90;;;;;;5089799;28;20731;-63
2022/09/09 09:07:47;;;;;;;7.28;1.02;;;19.80;99.90;;;;;;5096911;28;20032;-63
2022/09/09 09:10:33;;;;;;;6.78;0.90;;;19.90;99.90;;;;;;5100699;28;20024;-63
2022/09/09 09:13:01;;;;;;;7.10;1.38;;;19.90;99.90;;;;;;5091472;28;20035;-62
2022/09/09 09:15:35;;;;;;;3.08;0.60;;;20.00;99.90;;;;;;5096920;28;20023;-63
2022/09/09 09:18:02;;;;;;;5.32;0.68;;;20.20;99.90;;;;;;5092508;28;20032;-63
2022/09/09 09:20:53;;;;;;;5.65;1.27;;;20.30;99.90;;;;;;5118021;22;20063;-54
2022/09/09 09:23:30;;;;;;;5.70;0.70;;;20.30;99.90;;;;;;5040434;28;20176;-58
2022/09/09 09:26:00;;;;;;;3.85;0.63;;;20.20;99.90;;;;;;5042392;28;20053;-57
2022/09/09 09:28:29;;;;;;;6.28;0.60;;;20.00;99.90;;;;;;5040397;28;20033;-56
2022/09/09 09:31:07;;;;;;;4.05;0.90;;;19.80;99.90;;;;;;5042751;28;20364;-57
2022/09/09 09:33:52;;;;;;;5.95;0.80;;;19.90;99.90;;;;;;5023106;28;20064;-56
2022/09/09 09:36:19;;;;;;;2.58;0.77;;;19.90;99.90;;;;;;5023308;28;20030;-57
2022/09/09 09:39:00;;;;;;;10.20;1.50;;;20.00;99.90;;;;;;5023821;28;20021;-56
2022/09/09 09:41:43;;;;;;;5.68;1.73;;;20.00;99.90;;;;;;5020879;28;20236;-56
2022/09/09 09:44:29;;;;;;;3.85;0.88;;;20.00;99.90;;;;;;5026664;28;20028;-57
2022/09/09 09:47:12;;;;;;;7.45;0.90;;;19.90;99.90;;;;;;5022623;28;20064;-55
2022/09/09 09:49:38;;;;;;;6.68;0.70;;;20.00;99.90;;;;;;5022159;28;20018;-57
2022/09/09 09:52:04;;;;;;;9.50;0.80;;;20.00;99.90;;;;;;5027995;28;20083;-57
2022/09/09 09:54:35;;;;;;;3.95;0.70;;;20.10;99.90;;;;;;5018466;28;20025;-57
2022/09/09 09:57:17;;;;;;;3.45;0.70;;;20.20;99.90;;;;;;5019136;28;20515;-56
2022/09/09 09:59:43;;;;;;;5.88;0.80;;;20.20;99.90;;;;;;5027102;28;20037;-57
2022/09/09 10:02:18;;;;;;;3.15;0.70;;;20.40;99.90;;;;;;5024818;28;20080;-58
2022/09/09 10:04:45;;;;;;;2.30;0.60;;;20.40;99.90;;;;;;5022249;28;20018;-56
2022/09/09 10:07:21;;;;;;;8.05;0.60;;;20.40;99.90;;;;;;5024279;28;20092;-58
2022/09/09 10:09:57;;;;;;;5.30;0.82;;;20.40;99.90;;;;;;5025481;28;20030;-58
2022/09/09 10:12:43;;;;;;;0.65;0.43;;;20.50;99.90;;;;;;5030115;28;20100;-57
2022/09/09 10:15:31;;;;;;;2.92;0.77;;;20.60;99.90;;;;;;5030999;28;20410;-56
2022/09/09 10:18:21;;;;;;;2.83;0.60;;;20.60;99.90;;;;;;5029210;28;20407;-56
2022/09/09 10:21:05;;;;;;;3.63;0.60;;;20.40;99.90;;;;;;5021230;28;20029;-57
2022/09/09 10:23:51;;;;;;;2.87;0.40;;;20.20;99.90;;;;;;5029659;28;20049;-58
2022/09/09 10:26:28;;;;;;;4.95;0.68;;;20.10;99.90;;;;;;5030007;28;20033;-57
2022/09/09 10:29:24;;;;;;;1.85;0.50;;;20.10;99.90;;;;;;5029461;28;20029;-54
2022/09/09 10:32:33;;;;;;;7.97;1.00;;;20.20;99.90;;;;;;5028881;28;20029;-56
2022/09/09 10:35:25;;;;;;;3.28;0.75;;;20.30;99.90;;;;;;5024803;28;20032;-56
2022/09/09 10:38:18;;;;;;;4.10;1.05;;;20.50;99.90;;;;;;5012447;28;20046;-57
2022/09/09 10:40:55;;;;;;;5.28;0.85;;;20.80;99.90;;;;;;5028372;28;20056;-54
2022/09/09 10:44:04;;;;;;;5.03;0.70;;;20.90;99.90;;;;;;5029540;28;20561;-55
2022/09/09 10:46:36;;;;;;;6.63;0.60;;;21.00;99.90;;;;;;5024636;28;20021;-56
2022/09/09 10:49:43;;;;;;;4.45;0.55;;;20.90;99.90;;;;;;5025051;28;20026;-55
2022/09/09 10:52:32;;;;;;;5.40;1.35;;;21.30;99.90;;;;;;4948555;28;20494;-54
2022/09/09 10:55:18;;;;;;;5.07;0.60;;;21.40;99.90;;;;;;4940023;28;20082;-58
2022/09/09 10:57:54;;;;;;;5.22;0.65;;;21.20;99.90;;;;;;5008627;28;20395;-56
2022/09/09 11:00:24;;;;;;;3.20;0.90;;;21.30;99.90;;;;;;5020157;28;20107;-55
2022/09/09 11:02:59;;;;;;;3.17;0.65;;;21.10;99.90;;;;;;5020905;28;20028;-55
2022/09/09 11:05:40;;;;;;;5.18;0.65;;;21.10;99.90;;;;;;5023605;28;20026;-56
2022/09/09 11:08:15;;;;;;;4.30;0.63;;;21.20;99.90;;;;;;5025031;28;20208;-55
2022/09/09 11:10:59;;;;;;;3.78;0.77;;;21.10;99.90;;;;;;5022877;28;20030;-56
2022/09/09 11:13:38;;;;;;;4.10;0.60;;;21.00;99.90;;;;;;5022169;28;20242;-59
2022/09/09 11:16:28;;;;;;;3.55;0.50;;;21.10;99.90;;;;;;5024328;28;20087;-57
2022/09/09 11:19:03;;;;;;;10.02;0.70;;;21.00;99.90;;;;;;5019429;28;20557;-57
2022/09/09 11:21:38;;;;;;;4.03;0.63;;;20.90;99.90;;;;;;5028691;28;20509;-55
2022/09/09 11:24:16;;;;;;;6.05;0.73;;;20.80;99.90;;;;;;5020134;28;20034;-57
2022/09/09 11:26:49;;;;;;;8.65;0.68;;;20.80;99.90;;;;;;5021650;28;20691;-57
2022/09/09 11:29:35;;;;;;;4.93;0.60;;;20.80;99.90;;;;;;5030247;28;20021;-54
2022/09/09 11:32:20;;;;;;;6.03;1.48;;;20.80;99.90;;;;;;5024458;28;20033;-55
2022/09/09 11:35:05;;;;;;;;;;;20.90;99.90;;;;;;5023217;28;20029;-55
2022/09/09 11:37:51;;;;;;;2.60;0.73;;;20.90;99.90;;;;;;5025411;28;19905;-57
2022/09/09 11:40:32;;;;;;;1.88;0.68;;;21.00;99.90;;;;;;5029452;28;20040;-58
2022/09/09 11:43:05;;;;;;;3.28;0.70;;;21.00;99.90;;;;;;5030580;28;20029;-57
2022/09/09 11:45:33;;;;;;;2.05;0.70;;;21.00;99.90;;;;;;5027666;28;20048;-57
2022/09/09 11:48:00;;;;;;;2.90;0.52;;;21.20;99.90;;;;;;5025022;28;20030;-54
2022/09/09 11:50:26;;;;;;;4.47;0.85;;;21.20;99.90;;;;;;5028113;28;20057;-54
2022/09/09 11:53:19;;;;;;;3.35;0.50;;;21.20;99.90;;;;;;5024917;28;20091;-56
2022/09/09 11:55:45;;;;;;;1.25;0.43;;;21.30;99.90;;;;;;5020887;28;20021;-55
2022/09/09 11:58:11;;;;;;;2.95;0.60;;;21.30;99.90;;;;;;5028288;28;20029;-57
2022/09/09 12:00:44;;;;;;;2.85;0.60;;;21.30;99.90;;;;;;5030286;28;20491;-56
2022/09/09 12:03:34;;;;;;;4.30;0.60;;;21.20;99.90;;;;;;5030637;28;20032;-55
2022/09/09 12:06:09;;;;;;;3.03;0.60;;;21.20;99.90;;;;;;5029111;28;20508;-55
2022/09/09 12:08:36;;;;;;;3.65;0.57;;;21.00;99.90;;;;;;5025644;28;20033;-58
2022/09/09 12:11:05;;;;;;;6.25;0.73;;;20.90;99.90;;;;;;5022439;28;20080;-58
2022/09/09 12:13:31;;;;;;;7.85;0.80;;;20.90;99.90;;;;;;5028193;28;20075;-55
2022/09/09 12:15:59;;;;;;;4.07;0.60;;;20.80;99.90;;;;;;5023554;28;20038;-59
2022/09/09 12:18:36;;;;;;;4.38;0.77;;;20.90;99.90;;;;;;5028176;28;20017;-56
2022/09/09 12:21:41;;;;;;;2.63;0.65;;;21.00;99.90;;;;;;5026713;28;20029;-56
2022/09/09 12:24:16;;;;;;;3.63;0.55;;;21.10;99.90;;;;;;5020706;28;20030;-57
2022/09/09 12:26:53;;;;;;;;;;;21.30;99.90;;;;;;5030301;28;20032;-55
2022/09/09 12:29:31;;;;;;;1.45;0.60;;;21.30;99.90;;;;;;5029323;28;19913;-55
2022/09/09 12:32:05;;;;;;;8.15;1.30;;;21.60;99.90;;;;;;5021574;28;20060;-57
2022/09/09 12:34:42;;;;;;;3.15;1.02;;;21.70;99.90;;;;;;5021953;28;20482;-58
2022/09/09 12:37:37;;;;;;;2.95;0.50;;;21.60;99.90;;;;;;5025013;28;20022;-57
2022/09/09 12:40:05;;;;;;;4.93;0.73;;;21.50;99.90;;;;;;5024003;28;20036;-57
2022/09/09 12:42:33;;;;;;;4.93;1.13;;;21.40;99.90;;;;;;5028961;28;20025;-56
2022/09/09 12:45:15;;;;;;;1.30;0.50;;;21.30;99.90;;;;;;5021416;28;20032;-56
2022/09/09 12:47:43;;;;;;;4.30;0.82;;;21.10;99.90;;;;;;5015941;28;20044;-58
2022/09/09 12:50:18;;;;;;;2.70;0.70;;;21.10;99.90;;;;;;5019954;28;20142;-58
2022/09/09 12:52:46;;;;;;;2.42;0.70;;;21.10;99.90;;;;;;5015821;28;20518;-56
2022/09/09 12:55:18;;;;;;;5.65;0.88;;;21.40;99.90;;;;;;5022081;28;20059;-59
2022/09/09 12:57:44;;;;;;;2.88;0.75;;;21.80;99.90;;;;;;5026682;28;20030;-56
2022/09/09 13:00:17;;;;;;;8.00;0.65;;;22.20;99.90;;;;;;5024578;28;20128;-56
2022/09/09 13:02:54;;;;;;;5.45;0.70;;;22.20;99.90;;;;;;5025745;28;20034;-55
2022/09/09 13:05:28;;;;;;;6.43;0.70;;;22.10;99.90;;;;;;5025666;28;20070;-56
2022/09/09 13:08:04;;;;;;;1.52;0.47;;;22.10;99.90;;;;;;5011811;28;20034;-57
2022/09/09 13:10:38;;;;;;;4.13;0.60;;;22.00;99.90;;;;;;5019808;28;20053;-57
2022/09/09 13:13:05;;;;;;;3.33;1.33;;;22.00;99.90;;;;;;5019202;28;20403;-55
2022/09/09 13:15:31;;;;;;;2.30;0.93;;;22.20;99.90;;;;;;5019292;28;20120;-55